FW2512 Weather Reports


Display with metric or nautical units.
time (UTC)temp
F
wind
direction
speed
MPH
gust
MPH
rain 1hr
in
rain 24hr
in
rain mn
in
humidity
%
barometer
mb
20210926070129 52 336 0.0 0.0 0.00 0.00 0.00 80 1019.0
20210926064611 52 336 0.0 0.0 0.00 0.00 0.00 80 1019.0
20210926063059 52 336 0.0 0.0 0.00 0.00 0.00 80 1019.1
20210926061611 52 336 0.0 0.0 0.00 0.00 0.00 76 1019.2
20210926060132 53 336 0.0 0.0 0.00 0.00 0.00 75 1019.2
20210926054634 53 336 0.0 0.0 0.00 0.00 0.00 72 1019.3
20210926053047 54 336 0.0 0.0 0.00 0.00 0.00 71 1019.4
20210926051553 54 336 0.0 0.0 0.00 0.00 0.00 70 1019.5
20210926050133 55 336 0.0 0.0 0.00 0.00 0.00 70 1019.5
20210926044636 55 336 0.0 0.0 0.00 0.00 0.00 69 1019.6
20210926043058 55 336 0.0 0.0 0.00 0.00 0.00 69 1019.7
20210926041603 55 336 0.0 0.0 0.00 0.00 0.00 68 1019.7
20210926040045 55 336 0.0 2.0 0.00 0.00 0.00 70 1019.5
20210926034629 55 336 0.0 1.0 0.00 0.00 0.00 69 1019.4
20210926033107 56 336 0.0 0.0 0.00 0.00 0.00 69 1019.2
20210926031631 56 336 0.0 0.0 0.00 0.00 0.00 67 1019.1
20210926030124 56 336 0.0 0.0 0.00 0.00 0.00 67 1019.1
20210926024611 56 336 0.0 0.0 0.00 0.00 0.00 68 1018.8
20210926023207 56 336 0.0 0.0 0.00 0.00 0.00 68 1019.0
20210926021607 56 336 0.0 0.0 0.00 0.00 0.00 68 1018.9
20210926020126 57 336 0.0 0.0 0.00 0.00 0.00 68 1018.8
20210926014628 57 336 0.0 0.0 0.00 0.00 0.00 68 1018.7
20210926013109 57 336 0.0 0.0 0.00 0.00 0.00 67 1018.7
20210926011629 58 336 0.0 0.0 0.00 0.00 0.00 67 1018.5
20210926010115 58 336 0.0 0.0 0.00 0.00 0.00 65 1018.4
20210926004634 59 336 0.0 0.0 0.00 0.00 0.00 65 1018.4
20210926003135 60 336 0.0 0.0 0.00 0.00 0.00 65 1018.3
20210926001606 60 336 0.0 0.0 0.00 0.00 0.00 63 1018.2
20210926000108 61 336 0.0 1.0 0.00 0.00 0.00 65 1018.1
20210925234551 63 336 0.0 2.0 0.00 0.00 0.00 61 1017.7
20210925233102 64 336 0.0 0.0 0.00 0.00 0.00 59 1017.8
20210925231625 65 336 0.0 0.0 0.00 0.00 0.00 56 1017.7
20210925230056 67 336 0.0 0.0 0.00 0.00 0.00 55 1017.8
20210925224549 69 336 0.0 0.0 0.00 0.00 0.00 51 1017.7
20210925223108 70 336 0.0 0.0 0.00 0.00 0.00 48 1017.4
20210925221553 72 336 0.0 0.0 0.00 0.00 0.00 43 1017.3
20210925220137 73 336 0.0 0.0 0.00 0.00 0.00 41 1017.5
20210925214603 73 336 0.0 2.0 0.00 0.00 0.00 40 1017.4
20210925213103 74 19 0.0 5.0 0.00 0.00 0.00 36 1017.5
20210925211549 74 355 0.0 4.0 0.00 0.00 0.00 35 1017.7
20210925210043 74 337 0.0 8.0 0.00 0.00 0.00 35 1017.7
20210925204547 74 347 4.0 9.0 0.00 0.00 0.00 35 1017.8
20210925203103 74 5 3.0 6.0 0.00 0.00 0.00 34 1017.7
20210925201639 74 351 4.0 8.0 0.00 0.00 0.00 35 1017.8
20210925200043 75 337 2.0 9.0 0.00 0.00 0.00 37 1018.0
20210925194550 75 334 3.0 13.0 0.00 0.00 0.00 36 1018.1
20210925193122 75 345 2.0 4.0 0.00 0.00 0.00 36 1018.2
20210925191528 74 245 2.0 6.0 0.00 0.00 0.00 37 1018.2
20210925190109 74 334 2.0 10.0 0.00 0.00 0.00 36 1018.2
20210925184524 74 188 2.0 10.0 0.00 0.00 0.00 36 1018.5
20210925183053 74 11 1.0 12.0 0.00 0.00 0.00 38 1018.5
20210925181522 74 342 2.0 10.0 0.00 0.00 0.00 38 1018.7
20210925180045 73 241 1.0 8.0 0.00 0.00 0.00 40 1018.8
20210925174545 73 239 1.0 9.0 0.00 0.00 0.00 39 1019.1
20210925173036 72 188 1.0 5.0 0.00 0.00 0.00 48 1019.4
20210925171508 71 153 0.0 8.0 0.00 0.00 0.00 48 1019.4
20210925170005 70 49 0.0 6.0 0.00 0.00 0.00 48 1019.6
20210925164504 70 132 1.0 6.0 0.00 0.00 0.00 49 1019.7
20210925163208 69 211 2.0 6.0 0.00 0.00 0.00 53 1019.9
20210925161638 68 199 2.0 4.0 0.00 0.00 0.00 53 1020.3
20210925154656 68 209 1.0 5.0 0.00 0.00 0.00 53 1020.4
20210925153102 67 245 1.0 6.0 0.00 0.00 0.00 55 1020.5
20210925151609 66 209 3.0 8.0 0.00 0.00 0.00 55 1020.6
20210925144547 65 160 0.0 0.0 0.00 0.00 0.00 59 1020.7
20210925143120 65 219 0.0 0.0 0.00 0.00 0.00 57 1020.9
20210925141543 64 227 0.0 0.0 0.00 0.00 0.00 61 1021.4
20210925134625 62 242 0.0 0.0 0.00 0.00 0.00 61 1020.7
20210925133140 60 242 0.0 0.0 0.00 0.00 0.00 70 1020.7
20210925131615 55 242 0.0 0.0 0.00 0.00 0.00 80 1020.5
20210925124535 52 242 0.0 0.0 0.00 0.00 0.00 84 1020.4
20210925123016 50 242 0.0 0.0 0.00 0.00 0.00 84 1020.5
20210925121512 49 242 0.0 0.0 0.00 0.00 0.00 84 1020.6
20210925114511 48 242 0.0 0.0 0.00 0.00 0.00 84 1020.5
20210925113022 47 242 0.0 0.0 0.00 0.00 0.00 84 1020.4
20210925111535 47 242 0.0 0.0 0.00 0.00 0.00 83 1020.1
20210925104505 47 242 0.0 0.0 0.00 0.00 0.00 83 1019.6
20210925103005 47 242 0.0 0.0 0.00 0.00 0.00 83 1019.6
20210925101505 47 242 0.0 0.0 0.00 0.00 0.00 83 1019.4
20210925094504 47 242 0.0 0.0 0.00 0.00 0.00 82 1019.5
20210925093003 47 242 0.0 0.0 0.00 0.00 0.00 80 1019.5
20210925091649 47 242 0.0 0.0 0.00 0.00 0.00 79 1019.3
20210925091501 48 242 0.0 0.0 0.00 0.00 0.00 79 1019.3
20210925084619 48 242 0.0 0.0 0.00 0.00 0.00 74 1019.4
20210925083106 49 242 0.0 0.0 0.00 0.00 0.00 73 1019.3
20210925081607 49 242 0.0 0.0 0.00 0.00 0.00 74 1019.2
20210925074612 49 242 0.0 0.0 0.00 0.00 0.00 73 1019.6
20210925073208 50 242 0.0 0.0 0.00 0.00 0.00 73 1019.7
20210925071602 50 242 0.0 0.0 0.00 0.00 0.00 72 1019.8